Stanfield, NC (28163)

09:10 EST le 08 décembre 2016 (GMT -0500)
Bost Creek | | Change Station

Alt. 528 ft 35.29 °N, 80.49 °W | Updated 26 seconds ago

Couvert
Couvert
49.8 ° F
Paraît 50 ° F
N
0.0
Vent Variable Vent de ONO

Aujourd'hui
Haut(e) -- | Bas -- ° F
--% Risque de précip.
Hier
Haut(e) -- | Bas -- ° F
Precip. -- pouce
Pression 30.13 pouce
Visibilité 10.0 Miles terrestres
Nuages Couvert 700 ft
Refroidissement éolien 50 ° F
Point de rosée 47 ° F
Humidité 91%
Précipitations 0.00 pouce
Profondeur de la couche neigeuse Non disponible.
7:18 AM 5:09 PM
Lune gibbeuse croissante, 63% visible
METAR KEQY 081353Z AUTO 27004KT 10SM OVC007 10/08 A3009 RMK AO2 SLP201 T01000078
Pression 30.13 pouce
Visibilité 10.0 Miles terrestres
Nuages Couvert 700 ft
Refroidissement éolien 50 ° F
Point de rosée 47 ° F
Humidité 91%
Précipitations 0.00 pouce
Profondeur de la couche neigeuse Non disponible.
7:18 AM 5:09 PM
Lune gibbeuse croissante, 63% visible
METAR KEQY 081353Z AUTO 27004KT 10SM OVC007 10/08 A3009 RMK AO2 SLP201 T01000078

10-Day Weather Forecast

Almanac

Astronomie

Dec. 08, 2016 Lever Coucher
Temps réel
Crépuscule civil
Crépuscule nautique
Crépuscule astronomique
Lune
Durée de lumière visible
Longueur du jour
Tomorrow will be .
, % of the Moon is Illuminated

Extrêmes aujourd'hui

State Highs State Lows

Community

WunderPhotos

Upload Photos

1,956,268 Photos téléchargées !

WunderBlog® & News

Nearby

Qualité de l'air

  Qualité de l'air Indice de la qualité de l'air Polluant
Not available.

Épaisseur de neige

Station Depth Altitude

Activité sismique

Ville Distance Mag. Time & Date
Minimum magnitude displayed is 2.5.

Températures des eaux côtières

Lieu Température

Stations

Stations météo à proximité

Emplacement de la station Température Refroidissement éolien Point de rosée Humidité Vent Precip. Alt. Mise à jour Type
                   

Watches & Warnings

There are currently no watches in effect.